Time;durP1;ratioP1;P1;durP2;ratioP2;P2;SDS_P1;SDS_P2;PMS_P1;PMS_P2;Temp;Humidity;BMP_temperature;BMP_pressure;BME280_temperature;BME280_humidity;BME280_pressure;Samples;Min_cycle;Max_cycle;Signal;HPM_P1;HPM_P2
2022/12/04 00:01:22;;;;;;;12.57;8.35;;;;;;;20.13;35.45;102130.09;5023217;28;20427;-62
2022/12/04 00:03:54;;;;;;;13.10;7.95;;;;;;;20.11;35.47;102145.28;5023474;28;20044;-62
2022/12/04 00:06:21;;;;;;;11.00;7.53;;;;;;;20.08;35.46;102127.88;5024878;28;20037;-62
2022/12/04 00:08:47;;;;;;;11.77;7.25;;;;;;;20.05;35.44;102136.13;5024402;28;20113;-62
2022/12/04 00:11:16;;;;;;;10.02;7.10;;;;;;;19.97;35.58;102129.94;5025581;28;20520;-62
2022/12/04 00:13:42;;;;;;;10.75;7.03;;;;;;;20.04;35.42;102125.69;5022104;28;20072;-62
2022/12/04 00:16:12;;;;;;;12.57;7.40;;;;;;;19.99;35.46;102135.91;5020434;28;20136;-62
2022/12/04 00:18:37;;;;;;;;;;;;;;;20.05;35.32;102122.06;5024766;28;20029;-63
2022/12/04 00:21:05;;;;;;;12.52;7.78;;;;;;;20.02;35.41;102130.31;5026415;28;20682;-62
2022/12/04 00:23:31;;;;;;;10.63;7.18;;;;;;;20.00;35.32;102126.97;5020736;28;20379;-62
2022/12/04 00:26:00;;;;;;;11.40;7.70;;;;;;;19.99;35.44;102126.16;5031209;28;21453;-62
2022/12/04 00:28:26;;;;;;;9.88;7.22;;;;;;;19.98;35.34;102121.84;5027441;28;20052;-62
2022/12/04 00:30:51;;;;;;;11.38;7.05;;;;;;;20.01;35.23;102115.41;5031899;28;20041;-62
2022/12/04 00:33:17;;;;;;;10.63;6.88;;;;;;;20.00;35.24;102121.69;5025727;28;20044;-62
2022/12/04 00:35:42;;;;;;;10.80;7.20;;;;;;;19.88;35.39;102121.88;5031664;28;20091;-62
2022/12/04 00:38:08;;;;;;;12.32;7.88;;;;;;;19.92;35.27;102127.72;5031321;28;20033;-62
2022/12/04 00:40:33;;;;;;;14.00;8.23;;;;;;;19.91;35.16;102134.81;5030669;28;20052;-62
2022/12/04 00:42:59;;;;;;;10.48;7.50;;;;;;;19.84;35.36;102130.28;5026323;28;20075;-62
2022/12/04 00:45:24;;;;;;;11.93;7.38;;;;;;;19.84;35.25;102136.38;5021688;28;20041;-62
2022/12/04 00:47:50;;;;;;;12.05;7.85;;;;;;;19.79;35.35;102127.25;5023276;28;20041;-62
2022/12/04 00:50:15;;;;;;;13.18;8.18;;;;;;;19.91;35.00;102133.97;5027059;28;20057;-62
2022/12/04 00:52:41;;;;;;;14.50;9.15;;;;;;;19.84;35.15;102125.81;5027336;28;20044;-62
2022/12/04 00:55:07;;;;;;;10.13;7.15;;;;;;;19.83;35.09;102124.16;5027456;28;20033;-62
2022/12/04 00:57:32;;;;;;;12.18;7.68;;;;;;;19.86;35.05;102117.75;5029523;28;20061;-62
2022/12/04 00:59:58;;;;;;;11.32;7.45;;;;;;;19.79;34.94;102119.31;5029879;28;20053;-62
2022/12/04 01:02:23;;;;;;;14.65;7.57;;;;;;;19.77;35.10;102105.44;5024550;28;20033;-62
2022/12/04 01:04:49;;;;;;;12.98;8.15;;;;;;;19.81;34.97;102112.06;5026147;28;20045;-62
2022/12/04 01:07:14;;;;;;;12.40;7.53;;;;;;;19.76;35.14;102112.53;5027976;28;20049;-62
2022/12/04 01:09:40;;;;;;;13.20;7.47;;;;;;;19.78;34.94;102118.50;5025586;28;20403;-62
2022/12/04 01:12:05;;;;;;;13.30;8.35;;;;;;;19.71;35.23;102117.41;5022959;28;20037;-62
2022/12/04 01:14:31;;;;;;;12.73;7.80;;;;;;;19.71;35.39;102120.03;5023254;28;20456;-62
2022/12/04 01:16:57;;;;;;;13.52;9.35;;;;;;;19.77;35.12;102110.72;5029658;28;20034;-62
2022/12/04 01:19:22;;;;;;;13.48;8.63;;;;;;;19.64;35.29;102113.69;5026832;28;20029;-62
2022/12/04 01:21:48;;;;;;;12.50;8.38;;;;;;;19.64;35.16;102108.41;5028772;28;20132;-62
2022/12/04 01:24:13;;;;;;;13.30;8.52;;;;;;;19.74;34.97;102117.09;5021603;28;20052;-62
2022/12/04 01:26:39;;;;;;;12.25;8.57;;;;;;;19.72;35.12;102116.41;5026516;28;20048;-62
2022/12/04 01:29:04;;;;;;;11.20;7.93;;;;;;;19.72;34.99;102112.94;5032337;28;20060;-62
2022/12/04 01:31:30;;;;;;;14.13;8.30;;;;;;;19.70;35.01;102112.25;5045757;28;20048;-62
2022/12/04 01:33:56;;;;;;;11.05;7.97;;;;;;;19.67;35.07;102117.84;5030873;28;20076;-62
2022/12/04 01:36:25;;;;;;;12.32;8.27;;;;;;;19.64;35.20;102123.44;5026360;28;20101;-63
2022/12/04 01:38:50;;;;;;;13.95;8.60;;;;;;;19.61;35.13;102117.47;5026106;28;20066;-62
2022/12/04 01:41:19;;;;;;;14.80;8.80;;;;;;;19.54;35.57;102105.81;5031313;28;20537;-62
2022/12/04 01:44:05;;;;;;;12.90;8.00;;;;;;;19.63;35.27;102103.28;5027968;28;21070;-62
2022/12/04 01:46:31;;;;;;;12.27;8.60;;;;;;;19.60;35.29;102109.69;5028233;28;20099;-61
2022/12/04 01:48:56;;;;;;;13.73;8.60;;;;;;;19.58;35.27;102109.00;5031064;28;20041;-61
2022/12/04 01:51:27;;;;;;;14.15;8.20;;;;;;;19.60;35.13;102105.25;5027601;28;20047;-61
2022/12/04 01:53:59;;;;;;;13.15;8.25;;;;;;;19.59;35.20;102100.94;5022042;28;20044;-61
2022/12/04 01:56:32;;;;;;;12.70;8.23;;;;;;;19.57;35.30;102105.53;5023904;28;20070;-61
2022/12/04 01:59:01;;;;;;;12.35;8.52;;;;;;;19.48;35.30;102094.97;5043502;28;20065;-61
2022/12/04 02:01:35;;;;;;;11.70;8.00;;;;;;;19.57;35.12;102105.53;5027701;28;20509;-61
2022/12/04 02:04:01;;;;;;;12.90;8.18;;;;;;;19.46;35.19;102081.91;5024361;28;20091;-61
2022/12/04 02:06:27;;;;;;;13.10;8.05;;;;;;;19.57;35.25;102105.53;5020629;28;20928;-61
2022/12/04 02:08:52;;;;;;;13.68;8.32;;;;;;;19.54;35.37;102100.53;5022824;28;20045;-61
2022/12/04 02:11:41;;;;;;;13.23;8.90;;;;;;;19.52;35.43;102101.63;5021113;28;20044;-61
2022/12/04 02:14:15;;;;;;;11.98;8.30;;;;;;;19.57;35.29;102112.63;5022484;28;20041;-61
2022/12/04 02:17:01;;;;;;;11.95;8.48;;;;;;;19.51;35.27;102107.88;5021419;28;20085;-61
2022/12/04 02:19:50;;;;;;;15.70;9.77;;;;;;;19.49;35.35;102110.66;5023903;28;20043;-61
2022/12/04 02:22:45;;;;;;;14.20;9.65;;;;;;;19.52;35.30;102109.53;5023575;28;20120;-61
2022/12/04 02:25:27;;;;;;;14.02;9.40;;;;;;;19.53;35.27;102109.41;5023204;28;20037;-61
2022/12/04 02:28:04;;;;;;;16.30;8.73;;;;;;;19.52;35.17;102102.44;5021788;28;20036;-61
2022/12/04 02:30:33;;;;;;;14.18;9.48;;;;;;;19.47;35.15;102103.88;5028918;28;20478;-61
2022/12/04 02:33:01;;;;;;;14.27;8.80;;;;;;;19.47;35.37;102106.53;5029409;28;20136;-61
2022/12/04 02:35:34;;;;;;;13.55;8.82;;;;;;;19.44;35.37;102105.00;5026621;28;20429;-61
2022/12/04 02:38:10;;;;;;;12.93;8.27;;;;;;;19.48;35.09;102106.38;5028438;28;20890;-61
2022/12/04 02:40:48;;;;;;;13.45;9.07;;;;;;;19.47;35.33;102103.88;5035134;28;20036;-61
2022/12/04 02:43:19;;;;;;;14.27;8.70;;;;;;;19.51;35.12;102107.88;5023206;28;20048;-62
2022/12/04 02:45:57;;;;;;;14.10;9.20;;;;;;;19.43;35.20;102091.94;5026738;28;20866;-61
2022/12/04 02:48:25;;;;;;;13.85;8.45;;;;;;;19.37;35.33;102098.63;5019294;28;20124;-61
2022/12/04 02:50:55;;;;;;;13.32;9.45;;;;;;;19.36;35.40;102104.06;5025681;28;20503;-61
2022/12/04 02:53:30;;;;;;;15.05;9.57;;;;;;;19.42;35.20;102103.50;5026817;28;20116;-61
2022/12/04 02:56:02;;;;;;;13.75;9.57;;;;;;;19.41;35.23;102100.03;5023131;28;20530;-61
2022/12/04 02:58:32;;;;;;;14.05;9.68;;;;;;;19.38;35.34;102099.44;5030826;28;20860;-61
2022/12/04 03:01:01;;;;;;;13.75;8.50;;;;;;;19.34;35.54;102093.63;5029015;28;20041;-61
2022/12/04 03:03:30;;;;;;;14.73;9.20;;;;;;;19.33;35.29;102087.53;5027710;28;20037;-61
2022/12/04 03:06:01;;;;;;;15.10;8.80;;;;;;;19.30;35.27;102097.56;5022370;28;20041;-61
2022/12/04 03:08:51;;;;;;;13.73;9.02;;;;;;;19.34;35.19;102096.28;5027339;28;20072;-62
2022/12/04 03:11:17;;;;;;;15.82;10.55;;;;;;;19.31;35.18;102099.22;5022773;28;21731;-61
2022/12/04 03:14:12;;;;;;;13.18;9.20;;;;;;;19.30;35.23;102105.47;5025121;28;20060;-61
2022/12/04 03:16:41;;;;;;;17.17;10.07;;;;;;;19.26;34.92;102083.81;5018996;28;20052;-61
2022/12/04 03:19:12;;;;;;;15.77;10.13;;;;;;;19.28;35.37;102095.06;5025852;28;20975;-61
2022/12/04 03:21:43;;;;;;;14.45;9.05;;;;;;;19.36;35.18;102104.06;5032068;28;20037;-61
2022/12/04 03:24:26;;;;;;;15.70;10.30;;;;;;;19.29;35.15;102102.00;5025062;28;20038;-61
2022/12/04 03:27:09;;;;;;;14.70;10.38;;;;;;;19.31;35.26;102102.69;5027076;28;20037;-61
2022/12/04 03:29:42;;;;;;;14.52;10.07;;;;;;;19.33;35.03;102113.94;5026961;28;20696;-61
2022/12/04 03:32:22;;;;;;;15.07;9.70;;;;;;;19.26;35.13;102094.38;5029739;28;20399;-61
2022/12/04 03:34:54;;;;;;;13.77;9.07;;;;;;;19.28;35.29;102100.34;5028995;28;20128;-63
2022/12/04 03:37:30;;;;;;;14.90;8.65;;;;;;;19.28;35.06;102099.50;5031581;28;20118;-61
2022/12/04 03:40:07;;;;;;;14.65;8.98;;;;;;;19.25;35.27;102094.53;5026879;28;20044;-61
2022/12/04 03:42:45;;;;;;;14.18;9.10;;;;;;;19.15;35.17;102081.34;5029834;28;20672;-61
2022/12/04 03:45:23;;;;;;;13.98;9.13;;;;;;;19.22;35.04;102086.91;5033711;28;20048;-61
2022/12/04 03:47:57;;;;;;;16.70;10.65;;;;;;;19.27;35.09;102098.69;5028701;28;20041;-61
2022/12/04 03:50:46;;;;;;;15.98;10.07;;;;;;;19.26;35.14;102096.19;5028756;28;20435;-61
2022/12/04 03:53:31;;;;;;;15.05;10.05;;;;;;;19.17;34.99;102097.03;5029846;28;20037;-61
2022/12/04 03:56:05;;;;;;;14.68;10.45;;;;;;;19.22;35.08;102094.81;5027911;28;20043;-61
2022/12/04 03:58:33;;;;;;;15.20;10.15;;;;;;;19.14;35.24;102094.69;5034969;28;20140;-61
2022/12/04 04:01:02;;;;;;;14.68;9.95;;;;;;;19.23;35.15;102085.91;5032441;28;20427;-61
2022/12/04 04:03:32;;;;;;;16.08;11.25;;;;;;;19.18;35.13;102096.06;5036099;28;20033;-61
2022/12/04 04:06:03;;;;;;;;;;;;;;;19.18;35.08;102096.06;5025000;28;20052;-61
2022/12/04 04:08:34;;;;;;;13.82;9.70;;;;;;;19.21;35.05;102101.91;5025570;28;19917;-61
2022/12/04 04:11:09;;;;;;;16.48;9.73;;;;;;;19.23;35.12;102102.59;5023784;28;20049;-61
2022/12/04 04:25:02;;;;;;;14.93;10.15;;;;;;;19.17;35.27;102091.75;5029602;28;20032;-61
2022/12/04 04:27:27;;;;;;;15.15;9.43;;;;;;;19.09;35.47;102094.31;5027392;28;20063;-61
2022/12/04 04:29:53;;;;;;;15.73;9.60;;;;;;;19.11;35.44;102089.72;5029671;28;20045;-61
2022/12/04 04:32:50;;;;;;;16.88;10.38;;;;;;;19.06;35.34;102086.69;5025888;28;20069;-61
2022/12/04 04:35:35;;;;;;;15.52;10.13;;;;;;;19.12;35.23;102096.66;5025417;28;20084;-61
2022/12/04 04:38:06;;;;;;;15.80;10.82;;;;;;;19.08;35.39;102088.19;5022003;28;20052;-61
2022/12/04 04:41:06;;;;;;;15.02;10.50;;;;;;;19.10;35.25;102096.78;5029878;28;20821;-61
2022/12/04 04:43:58;;;;;;;14.73;9.95;;;;;;;19.06;35.47;102092.78;5032214;28;20047;-61
2022/12/04 04:46:38;;;;;;;16.33;10.77;;;;;;;19.05;35.50;102093.75;5028798;28;20036;-61
2022/12/04 04:49:05;;;;;;;;;;;;;;;19.14;35.29;102094.69;5033965;28;20048;-61
2022/12/04 04:51:33;;;;;;;15.90;10.63;;;;;;;19.17;35.26;102094.41;5026491;28;20456;-61
2022/12/04 04:54:03;;;;;;;14.57;10.32;;;;;;;19.13;35.37;102100.94;5030930;28;20048;-61
2022/12/04 04:56:29;;;;;;;14.15;9.93;;;;;;;19.02;35.60;102104.59;5033365;28;20033;-61
2022/12/04 04:58:55;;;;;;;16.65;10.13;;;;;;;19.11;35.28;102098.47;5031531;28;20419;-61
2022/12/04 05:01:25;;;;;;;14.90;9.93;;;;;;;19.11;35.42;102098.47;5026971;28;20505;-61
2022/12/04 05:03:51;;;;;;;13.88;9.65;;;;;;;19.09;35.34;102102.22;5034722;28;20632;-61
2022/12/04 05:06:16;;;;;;;14.70;10.05;;;;;;;19.12;35.39;102104.56;5029412;28;20033;-61
2022/12/04 05:08:43;;;;;;;13.98;10.02;;;;;;;19.02;35.34;102099.31;5027908;28;20045;-61
2022/12/04 05:11:13;;;;;;;14.13;9.45;;;;;;;19.07;35.46;102101.53;5018839;28;20137;-61
2022/12/04 05:13:38;;;;;;;;;;;;;;;19.08;35.40;102103.19;5024249;28;20396;-61
2022/12/04 05:16:07;;;;;;;17.10;10.57;;;;;;;18.97;35.34;102091.81;5024008;28;19952;-61
2022/12/04 05:18:33;;;;;;;17.23;11.02;;;;;;;18.99;35.43;102102.25;5024065;28;20065;-61
2022/12/04 05:21:04;;;;;;;16.40;10.60;;;;;;;19.06;35.34;102103.34;5020020;28;20053;-61
2022/12/04 05:23:30;;;;;;;15.95;10.98;;;;;;;19.00;35.34;102099.44;5025963;28;20596;-61
2022/12/04 05:26:00;;;;;;;14.65;10.48;;;;;;;18.96;35.46;102100.72;5027210;28;20041;-61
2022/12/04 05:28:26;;;;;;;;;;;;;;;19.00;35.42;102115.28;5023813;28;20139;-61
2022/12/04 05:31:01;;;;;;;16.88;10.82;;;;;;;19.04;35.25;102099.19;5025237;28;19967;-61
2022/12/04 05:33:26;;;;;;;17.25;11.82;;;;;;;18.99;35.37;102105.72;5026418;28;20387;-61
2022/12/04 05:35:57;;;;;;;16.17;9.93;;;;;;;18.92;35.56;102094.06;5029089;28;20040;-61
2022/12/04 05:38:22;;;;;;;16.55;9.93;;;;;;;18.97;35.38;102104.19;5022991;28;20045;-61
2022/12/04 05:40:47;;;;;;;14.60;9.57;;;;;;;19.02;35.54;102105.41;5023293;28;20029;-61
2022/12/04 05:43:13;;;;;;;15.48;10.50;;;;;;;18.99;35.56;102111.00;5020777;28;20090;-61
2022/12/04 05:45:38;;;;;;;14.38;9.95;;;;;;;19.06;35.31;102113.06;5029505;28;20111;-61
2022/12/04 05:48:04;;;;;;;14.27;9.63;;;;;;;19.02;35.54;102109.88;5023893;28;20045;-61
2022/12/04 05:50:30;;;;;;;14.48;9.85;;;;;;;19.06;35.52;102116.56;5025223;28;21654;-61
2022/12/04 05:52:55;;;;;;;15.23;10.30;;;;;;;18.99;35.64;102112.78;5024831;28;20045;-61
2022/12/04 05:55:21;;;;;;;15.52;10.15;;;;;;;19.07;35.52;102115.56;5021813;28;20786;-61
2022/12/04 05:57:46;;;;;;;16.83;12.00;;;;;;;19.06;35.37;102108.63;5022075;28;20053;-61
2022/12/04 06:00:12;;;;;;;13.75;9.50;;;;;;;19.13;35.38;102112.34;5021132;28;20033;-61
2022/12/04 06:02:38;;;;;;;15.05;10.02;;;;;;;19.06;35.50;102107.78;5025556;28;20037;-61
2022/12/04 06:05:04;;;;;;;14.77;10.38;;;;;;;19.09;35.48;102105.69;5027522;28;21238;-61
2022/12/04 06:07:29;;;;;;;15.27;10.13;;;;;;;19.06;35.68;102115.72;5031185;28;20513;-61
2022/12/04 06:09:55;;;;;;;13.55;9.80;;;;;;;19.06;35.62;102111.28;5021317;28;20045;-61
2022/12/04 06:12:20;;;;;;;15.90;11.00;;;;;;;19.02;35.82;102109.88;5017851;28;20046;-61
2022/12/04 06:14:46;;;;;;;14.00;9.65;;;;;;;19.08;35.59;102108.47;5024592;28;20036;-61
2022/12/04 06:17:11;;;;;;;14.23;9.68;;;;;;;19.09;35.58;102105.69;5021391;28;20040;-61
2022/12/04 06:19:38;;;;;;;15.88;9.98;;;;;;;19.09;35.55;102107.50;5016306;28;20045;-61
2022/12/04 06:22:04;;;;;;;14.40;9.75;;;;;;;19.08;35.63;102106.69;5024856;28;20059;-61
2022/12/04 06:24:29;;;;;;;13.63;9.35;;;;;;;19.06;35.75;102108.63;5024447;28;20029;-61
2022/12/04 06:26:58;;;;;;;16.13;9.27;;;;;;;19.08;35.69;102109.31;5024045;28;20045;-61
2022/12/04 06:29:24;;;;;;;14.38;8.70;;;;;;;19.02;35.73;102115.16;5027004;28;20048;-61
2022/12/04 06:31:50;;;;;;;15.05;10.45;;;;;;;19.07;35.67;102133.22;5026520;28;20742;-61
2022/12/04 06:34:16;;;;;;;13.50;9.85;;;;;;;19.03;35.75;102124.75;5033259;28;20058;-63
2022/12/04 06:36:42;;;;;;;14.38;9.68;;;;;;;19.09;35.73;102126.81;5030232;28;20044;-61
2022/12/04 06:39:08;;;;;;;13.90;9.50;;;;;;;19.02;35.70;102117.78;5032364;28;20036;-61
2022/12/04 06:41:34;;;;;;;14.10;9.32;;;;;;;19.07;35.74;102125.31;5027678;28;20036;-61
2022/12/04 06:44:00;;;;;;;13.95;9.57;;;;;;;19.06;35.80;102124.47;5034982;28;20049;-61
2022/12/04 06:46:31;;;;;;;14.55;9.25;;;;;;;19.03;35.89;102122.13;5032429;28;20052;-61
2022/12/04 06:48:58;;;;;;;15.32;10.20;;;;;;;19.03;35.81;102114.19;5034466;28;20465;-61
2022/12/04 06:51:27;;;;;;;14.88;9.68;;;;;;;19.04;35.84;102122.94;5029023;28;20091;-61
2022/12/04 06:53:53;;;;;;;15.40;10.27;;;;;;;19.03;35.72;102111.56;5029768;28;20557;-61
2022/12/04 06:56:22;;;;;;;14.43;9.88;;;;;;;19.07;35.85;102120.03;5045249;28;20045;-61
2022/12/04 06:58:50;;;;;;;15.18;9.60;;;;;;;19.09;35.85;102118.06;5032058;28;20049;-61
2022/12/04 07:01:19;;;;;;;13.90;10.35;;;;;;;19.04;35.72;102115.88;5031422;28;20255;-61
2022/12/04 07:03:46;;;;;;;15.32;11.18;;;;;;;18.97;35.79;102093.63;5034300;28;20043;-61
2022/12/04 07:06:29;;;;;;;14.77;10.10;;;;;;;19.10;35.81;102111.81;5036698;28;20376;-61
2022/12/04 07:08:59;;;;;;;15.27;10.35;;;;;;;19.00;35.77;102110.00;5030444;28;20083;-61
2022/12/04 07:11:24;;;;;;;14.70;10.63;;;;;;;18.97;36.06;102114.75;5029854;28;20040;-61
2022/12/04 07:13:51;;;;;;;15.02;10.90;;;;;;;19.05;35.74;102116.69;5025773;28;20032;-61
2022/12/04 07:16:18;;;;;;;15.18;10.73;;;;;;;19.14;35.67;102108.72;5030224;28;20103;-61
2022/12/04 07:18:45;;;;;;;14.52;10.35;;;;;;;19.07;35.97;102112.94;5025608;28;20130;-61
2022/12/04 07:21:14;;;;;;;14.38;9.85;;;;;;;19.11;35.63;102114.31;5022241;28;20141;-61
2022/12/04 07:23:40;;;;;;;14.52;9.57;;;;;;;19.09;35.88;102124.19;5025524;28;20128;-61
2022/12/04 07:26:10;;;;;;;13.90;9.57;;;;;;;19.06;35.97;102127.09;5027513;28;20996;-61
2022/12/04 07:28:36;;;;;;;15.52;9.93;;;;;;;19.15;35.74;102122.75;5025176;28;20067;-61
2022/12/04 07:31:07;;;;;;;14.80;9.73;;;;;;;19.09;35.89;102129.47;5024810;28;20922;-61
2022/12/04 07:33:33;;;;;;;16.05;9.85;;;;;;;19.15;35.86;102120.94;5027819;28;20060;-61
2022/12/04 07:36:00;;;;;;;17.33;10.43;;;;;;;19.07;35.83;102126.13;5033279;28;20052;-61
2022/12/04 07:38:26;;;;;;;14.18;9.85;;;;;;;19.09;35.87;102126.81;5032727;28;20496;-61
2022/12/04 07:40:55;;;;;;;14.45;10.15;;;;;;;19.05;35.98;102122.81;5026312;28;20044;-61
2022/12/04 07:43:20;;;;;;;14.80;10.68;;;;;;;19.01;35.83;102121.41;5014113;28;20049;-61
2022/12/04 07:45:46;;;;;;;15.20;10.20;;;;;;;19.13;35.63;102130.84;5031104;28;20120;-61
2022/12/04 07:48:11;;;;;;;14.25;10.38;;;;;;;19.13;36.06;102124.72;5030349;28;20036;-61
2022/12/04 07:50:37;;;;;;;15.52;10.35;;;;;;;19.11;35.92;102129.31;5023456;28;20883;-61
2022/12/04 07:53:02;;;;;;;14.27;9.68;;;;;;;19.18;35.89;102133.03;5028710;28;20034;-61
2022/12/04 07:55:28;;;;;;;13.75;9.77;;;;;;;19.19;35.83;102134.69;5029823;28;20210;-61
2022/12/04 07:57:53;;;;;;;14.90;9.82;;;;;;;19.11;35.75;102127.50;5029197;28;20053;-61
2022/12/04 08:00:19;;;;;;;14.48;9.80;;;;;;;19.07;35.75;102128.78;5033181;28;20045;-61
2022/12/04 08:02:44;;;;;;;13.00;9.10;;;;;;;19.08;35.93;102125.16;5023665;28;20130;-61
2022/12/04 08:05:10;;;;;;;15.07;10.07;;;;;;;19.09;35.84;102131.25;5027404;28;20048;-61
2022/12/04 08:07:35;;;;;;;14.32;10.00;;;;;;;18.99;35.76;102126.81;5026211;28;20049;-61
2022/12/04 08:10:01;;;;;;;16.05;10.15;;;;;;;19.09;35.81;102133.91;5023414;28;20481;-62
2022/12/04 08:12:26;;;;;;;14.57;11.02;;;;;;;19.05;35.74;102130.72;5027328;28;20041;-61
2022/12/04 08:14:52;;;;;;;14.98;10.30;;;;;;;19.07;35.81;102127.94;5028130;28;20051;-61
2022/12/04 08:17:17;;;;;;;13.52;10.32;;;;;;;19.07;35.72;102134.06;5039414;28;20044;-61
2022/12/04 08:19:43;;;;;;;14.77;10.05;;;;;;;19.06;35.75;102135.03;5024751;28;20068;-61
2022/12/04 08:22:08;;;;;;;17.02;10.68;;;;;;;19.00;35.89;102127.66;5022427;28;20056;-61
2022/12/04 08:24:34;;;;;;;12.68;8.93;;;;;;;19.09;35.96;102144.47;5028935;28;20044;-61
2022/12/04 08:27:00;;;;;;;14.60;9.70;;;;;;;19.13;35.91;102140.56;5032795;28;20592;-61
2022/12/04 08:29:26;;;;;;;13.25;9.43;;;;;;;19.14;35.93;102134.31;5024473;28;20037;-61
2022/12/04 08:31:51;;;;;;;13.65;9.82;;;;;;;19.07;36.02;102133.22;5026481;28;20051;-61
2022/12/04 08:34:17;;;;;;;13.90;9.55;;;;;;;19.07;35.98;102138.50;5028670;28;20049;-61
2022/12/04 08:36:42;;;;;;;14.05;9.95;;;;;;;19.09;36.02;102145.31;5029751;28;21921;-61
2022/12/04 08:39:10;;;;;;;13.05;9.35;;;;;;;19.04;35.95;102144.06;5028620;28;20164;-61
2022/12/04 08:41:35;;;;;;;15.55;10.25;;;;;;;19.09;35.87;102142.66;5030195;28;20028;-61
2022/12/04 08:44:01;;;;;;;15.32;9.95;;;;;;;19.11;36.06;102150.44;5032793;28;20103;-61
2022/12/04 08:46:27;;;;;;;14.93;8.95;;;;;;;19.09;35.76;102149.75;5026866;28;20067;-61
2022/12/04 08:48:53;;;;;;;14.55;8.60;;;;;;;19.12;36.01;102152.09;5027262;28;20069;-69
2022/12/04 08:51:22;;;;;;;12.93;8.43;;;;;;;19.09;36.43;102144.47;5023717;28;20036;-63
2022/12/04 08:53:55;;;;;;;15.80;9.07;;;;;;;19.13;35.94;102156.41;5027730;28;20084;-63
2022/12/04 08:56:21;;;;;;;12.43;8.23;;;;;;;19.11;35.86;102147.78;5024118;28;20045;-63
2022/12/04 08:58:46;;;;;;;14.10;9.10;;;;;;;19.14;35.81;102155.44;5027597;28;20174;-65
2022/12/04 09:01:13;;;;;;;13.48;8.98;;;;;;;19.12;35.69;102154.75;5027319;28;20036;-63
2022/12/04 09:03:39;;;;;;;15.13;9.48;;;;;;;19.16;35.52;102148.19;5026596;28;20045;-62
2022/12/04 09:06:06;;;;;;;13.30;9.25;;;;;;;19.69;34.88;102148.44;5024965;28;20045;-62
2022/12/04 09:08:35;;;;;;;15.50;9.87;;;;;;;20.48;33.86;102139.88;5029901;28;20045;-62
2022/12/04 09:11:06;;;;;;;12.60;9.02;;;;;;;21.41;32.70;102138.38;5027543;28;20036;-62
2022/12/04 09:13:32;;;;;;;13.32;8.85;;;;;;;21.90;32.20;102138.53;5028879;28;20410;-65
2022/12/04 09:16:03;;;;;;;13.32;8.27;;;;;;;21.94;32.06;102143.38;5027313;28;20395;-65
2022/12/04 09:18:28;;;;;;;;;;;;;;;21.86;32.47;102151.28;5024392;28;20036;-66
2022/12/04 09:20:56;;;;;;;14.32;9.57;;;;;;;21.66;32.73;102139.31;5022535;28;19925;-65
2022/12/04 09:23:21;;;;;;;13.25;8.73;;;;;;;21.47;33.29;102136.91;5027070;28;20885;-65
2022/12/04 09:25:47;;;;;;;13.07;7.82;;;;;;;21.29;33.33;102142.28;5034335;28;20047;-65
2022/12/04 09:28:13;;;;;;;14.55;8.27;;;;;;;21.09;33.86;102145.13;5037360;28;20038;-65
2022/12/04 09:30:38;;;;;;;15.50;8.02;;;;;;;20.95;34.21;102142.22;5034038;28;20041;-65
2022/12/04 09:33:04;;;;;;;11.88;7.38;;;;;;;20.87;34.40;102139.53;5029947;28;20033;-65
2022/12/04 09:35:29;;;;;;;12.40;8.27;;;;;;;20.88;34.28;102141.19;5038779;28;20499;-65
2022/12/04 09:37:56;;;;;;;10.90;7.43;;;;;;;20.88;34.20;102136.72;5031275;28;20041;-65
2022/12/04 09:40:36;;;;;;;12.38;8.18;;;;;;;20.89;34.30;102141.03;5031905;28;20043;-65
2022/12/04 09:43:14;;;;;;;11.95;7.75;;;;;;;20.95;34.09;102145.69;5033208;28;20391;-65
2022/12/04 09:45:49;;;;;;;11.52;7.53;;;;;;;20.84;34.35;102143.31;5026228;28;20496;-65
2022/12/04 09:48:17;;;;;;;13.63;8.07;;;;;;;20.80;34.45;102128.69;5031066;28;20041;-64
2022/12/04 09:50:44;;;;;;;11.82;7.85;;;;;;;20.73;34.48;102133.78;5027805;28;20036;-65
2022/12/04 09:53:14;;;;;;;11.43;7.38;;;;;;;20.58;34.84;102131.84;5032876;28;20037;-65
2022/12/04 09:55:46;;;;;;;11.45;7.47;;;;;;;20.53;34.72;102129.66;5032782;28;20440;-65
2022/12/04 09:58:24;;;;;;;11.75;7.65;;;;;;;20.48;34.87;102138.06;5036665;28;20049;-65
2022/12/04 10:00:54;;;;;;;11.45;7.93;;;;;;;20.37;34.93;102134.78;5031900;28;20033;-65
2022/12/04 10:03:25;;;;;;;10.77;7.72;;;;;;;20.52;34.82;102134.13;5027731;28;20052;-65
2022/12/04 10:06:03;;;;;;;11.93;7.97;;;;;;;20.49;34.84;102136.25;5032126;28;20045;-65
2022/12/04 10:08:39;;;;;;;10.65;7.80;;;;;;;20.40;34.88;102132.66;5038617;28;20067;-65
2022/12/04 10:11:17;;;;;;;10.88;7.43;;;;;;;20.41;34.89;102147.56;5037626;28;20037;-65
2022/12/04 10:13:53;;;;;;;10.73;7.50;;;;;;;20.48;34.51;102145.19;5012763;28;20498;-65
2022/12/04 10:16:27;;;;;;;11.70;8.65;;;;;;;20.42;34.61;102141.31;5041164;28;20335;-65
2022/12/04 10:19:07;;;;;;;12.02;7.80;;;;;;;20.36;34.81;102144.53;5037999;28;20035;-66
2022/12/04 10:22:08;;;;;;;12.15;8.35;;;;;;;20.41;34.57;102138.81;5034770;28;20033;-65
2022/12/04 10:24:50;;;;;;;11.90;8.38;;;;;;;20.33;34.81;102136.06;5029953;28;20494;-65
2022/12/04 10:27:34;;;;;;;10.68;7.82;;;;;;;20.26;34.88;102132.34;5031970;28;20033;-65
2022/12/04 10:30:23;;;;;;;10.50;7.43;;;;;;;20.35;34.71;102126.16;5035979;28;20777;-65
2022/12/04 10:33:14;;;;;;;11.02;7.13;;;;;;;20.20;34.83;102124.03;5033180;28;20044;-65
2022/12/04 10:35:43;;;;;;;10.43;6.93;;;;;;;20.22;34.69;102115.94;5023428;28;20124;-65
2022/12/04 10:38:19;;;;;;;9.73;7.18;;;;;;;20.28;34.71;102125.09;5037088;28;20427;-65
2022/12/04 10:40:54;;;;;;;11.98;7.70;;;;;;;20.25;34.82;102128.88;5037332;28;20440;-65
2022/12/04 10:43:42;;;;;;;12.63;7.82;;;;;;;20.10;34.92;102127.72;5033000;28;20029;-65
2022/12/04 10:46:34;;;;;;;11.25;7.20;;;;;;;20.13;34.84;102124.81;5034142;28;20068;-65
2022/12/04 10:49:12;;;;;;;10.93;7.57;;;;;;;20.05;35.00;102141.41;5034168;28;20060;-65
2022/12/04 10:51:41;;;;;;;10.63;7.65;;;;;;;20.05;34.88;102137.94;5031820;28;20034;-65
2022/12/04 10:54:25;;;;;;;10.18;7.32;;;;;;;19.91;35.24;102133.97;5038700;28;20056;-65
2022/12/04 10:57:00;;;;;;;9.32;6.72;;;;;;;19.98;35.01;102131.59;5033580;28;20116;-65
2022/12/04 10:59:26;;;;;;;9.93;7.28;;;;;;;19.89;35.11;102135.94;5033004;28;20041;-65
2022/12/04 11:02:14;;;;;;;10.02;7.00;;;;;;;19.94;35.06;102132.88;5036886;28;20037;-65
2022/12/04 11:04:40;;;;;;;9.52;7.05;;;;;;;19.78;35.27;102125.59;5036425;28;20115;-65
2022/12/04 11:07:21;;;;;;;9.98;7.55;;;;;;;19.74;35.38;102119.75;5039754;28;20548;-65
2022/12/04 11:10:04;;;;;;;9.88;7.45;;;;;;;19.70;35.30;102121.03;5031636;28;20131;-65
2022/12/04 11:12:30;;;;;;;9.90;7.25;;;;;;;19.81;35.23;102123.47;5034660;28;20760;-65
2022/12/04 11:15:05;;;;;;;10.75;6.65;;;;;;;19.75;35.33;102116.16;5042820;28;20136;-65
2022/12/04 11:17:31;;;;;;;10.35;6.80;;;;;;;19.82;35.23;102113.72;5033006;28;20504;-65
2022/12/04 11:20:06;;;;;;;10.68;7.72;;;;;;;19.76;35.34;102109.88;5030366;28;20044;-65
2022/12/04 11:22:34;;;;;;;11.35;7.15;;;;;;;19.71;35.40;102112.13;5039038;28;20430;-65
2022/12/04 11:25:00;;;;;;;9.05;7.00;;;;;;;19.73;35.35;102119.91;5032237;28;20053;-65
2022/12/04 11:27:31;;;;;;;8.88;6.15;;;;;;;19.61;35.69;102116.63;5037897;28;20044;-65
2022/12/04 11:30:00;;;;;;;9.43;6.70;;;;;;;19.64;35.71;102113.69;5038116;28;20114;-65
2022/12/04 11:32:32;;;;;;;9.97;6.80;;;;;;;19.55;35.72;102112.75;5029166;28;20037;-65
2022/12/04 11:35:23;;;;;;;9.23;6.50;;;;;;;19.56;35.71;102103.84;5036768;28;20047;-65
2022/12/04 11:38:01;;;;;;;10.15;7.35;;;;;;;19.55;35.68;102104.00;5034012;28;20083;-65
2022/12/04 11:40:27;;;;;;;10.30;7.43;;;;;;;19.67;35.55;102104.63;5031096;28;20360;-65
2022/12/04 11:43:12;;;;;;;9.50;6.70;;;;;;;19.99;34.98;102096.22;5034745;28;20048;-65